createdAt,value
2023-10-30T00:00:13.106Z,82.50
2023-10-30T00:01:11.090Z,82.54
2023-10-30T00:02:11.080Z,82.48
2023-10-30T00:03:11.234Z,82.53
2023-10-30T00:04:11.159Z,82.49
2023-10-30T00:05:11.073Z,82.42
2023-10-30T00:06:11.111Z,82.26
2023-10-30T00:07:11.076Z,82.34
2023-10-30T00:08:11.075Z,82.36
2023-10-30T00:09:11.129Z,82.23
2023-10-30T00:10:11.082Z,82.29
2023-10-30T00:11:11.078Z,82.33
2023-10-30T00:12:11.126Z,82.32
2023-10-30T00:13:11.077Z,82.29
2023-10-30T00:14:11.079Z,82.27
2023-10-30T00:15:11.113Z,82.30
2023-10-30T00:16:11.078Z,82.27
2023-10-30T00:17:11.092Z,82.21
2023-10-30T00:18:11.144Z,82.09
2023-10-30T00:19:11.089Z,82.29
2023-10-30T00:20:11.090Z,82.40
2023-10-30T00:21:13.129Z,82.40
2023-10-30T00:22:11.090Z,82.35
2023-10-30T00:23:11.089Z,82.32
2023-10-30T00:24:11.110Z,82.22
2023-10-30T00:25:11.085Z,82.20
2023-10-30T00:26:11.104Z,82.08
2023-10-30T00:27:11.114Z,82.05
2023-10-30T00:28:11.089Z,81.99
2023-10-30T00:29:11.100Z,81.87
2023-10-30T00:30:11.115Z,81.74
2023-10-30T00:31:11.100Z,81.62
2023-10-30T00:32:11.090Z,81.47
2023-10-30T00:33:11.151Z,81.67
2023-10-30T00:34:14.084Z,81.66
2023-10-30T00:35:11.099Z,81.47
2023-10-30T00:36:11.118Z,81.56
2023-10-30T00:37:11.118Z,81.45
2023-10-30T00:38:11.092Z,81.38
2023-10-30T00:39:11.117Z,81.54
2023-10-30T00:40:11.090Z,81.50
2023-10-30T00:41:11.095Z,81.55
2023-10-30T00:42:11.138Z,81.64
2023-10-30T00:43:11.092Z,81.63
2023-10-30T00:44:11.093Z,81.50
2023-10-30T00:45:11.114Z,81.58
2023-10-30T00:46:11.121Z,81.47
2023-10-30T00:47:11.095Z,81.54
2023-10-30T00:48:11.148Z,81.50
2023-10-30T00:49:11.095Z,81.52
2023-10-30T00:50:11.104Z,81.39
2023-10-30T00:51:11.162Z,81.45
2023-10-30T00:52:11.098Z,81.40
2023-10-30T00:53:11.126Z,81.38
2023-10-30T00:54:11.119Z,81.38
2023-10-30T00:55:11.104Z,81.43
2023-10-30T00:56:11.102Z,81.39
2023-10-30T00:57:11.124Z,81.35
2023-10-30T00:58:12.104Z,81.33
2023-10-30T00:59:11.098Z,81.68
2023-10-30T01:00:11.123Z,81.53
2023-10-30T01:01:11.103Z,81.32
2023-10-30T01:02:11.189Z,81.25
2023-10-30T01:03:11.285Z,81.26
2023-10-30T01:04:13.361Z,81.21
2023-10-30T01:05:11.308Z,81.17
2023-10-30T01:06:11.114Z,81.12
2023-10-30T01:07:11.112Z,81.22
2023-10-30T01:08:13.104Z,81.12
2023-10-30T01:09:11.158Z,81.03
2023-10-30T01:10:11.107Z,81.08
2023-10-30T01:11:11.106Z,81.09
2023-10-30T01:12:11.153Z,81.15
2023-10-30T01:13:11.112Z,80.98
2023-10-30T01:14:11.107Z,80.98
2023-10-30T01:15:11.128Z,80.90
2023-10-30T01:16:11.158Z,80.83
2023-10-30T01:17:11.111Z,81.00
2023-10-30T01:18:11.125Z,81.05
2023-10-30T01:19:11.112Z,80.85
2023-10-30T01:20:11.112Z,80.99
2023-10-30T01:21:14.150Z,81.15
2023-10-30T01:22:11.111Z,81.19
2023-10-30T01:23:11.114Z,81.43
2023-10-30T01:24:11.133Z,81.35
2023-10-30T01:25:11.114Z,81.41
2023-10-30T01:26:11.123Z,81.67
2023-10-30T01:27:11.142Z,81.78
2023-10-30T01:28:11.120Z,81.84
2023-10-30T01:29:11.120Z,81.83
2023-10-30T01:30:11.145Z,81.94
2023-10-30T01:31:11.121Z,81.91
2023-10-30T01:32:11.122Z,81.98
2023-10-30T01:33:11.230Z,82.00
2023-10-30T01:34:11.242Z,81.96
2023-10-30T01:35:11.179Z,81.98
2023-10-30T01:36:11.125Z,82.03
2023-10-30T01:37:11.120Z,82.09
2023-10-30T01:38:11.123Z,82.05
2023-10-30T01:39:11.136Z,81.91
2023-10-30T01:40:11.128Z,81.96
2023-10-30T01:41:11.123Z,82.09
2023-10-30T01:42:11.156Z,82.03
2023-10-30T01:43:13.122Z,82.24
2023-10-30T01:44:11.125Z,82.43
2023-10-30T01:45:11.172Z,82.60
2023-10-30T01:46:13.150Z,82.56
2023-10-30T01:47:11.127Z,82.51
2023-10-30T01:48:11.223Z,82.69
2023-10-30T01:49:11.132Z,82.63
2023-10-30T01:50:11.127Z,82.53
2023-10-30T01:51:11.215Z,82.59
2023-10-30T01:52:11.128Z,82.55
2023-10-30T01:53:11.138Z,82.51
2023-10-30T01:54:11.162Z,82.56
2023-10-30T01:55:11.138Z,82.69
2023-10-30T01:56:11.135Z,82.95
2023-10-30T01:57:11.145Z,82.94
2023-10-30T01:58:11.132Z,83.00
2023-10-30T01:59:11.141Z,83.03
2023-10-30T02:00:11.181Z,83.04
2023-10-30T02:01:11.184Z,82.97
2023-10-30T02:02:11.153Z,82.98
2023-10-30T02:03:11.298Z,82.83
2023-10-30T02:04:11.167Z,82.96
2023-10-30T02:05:11.136Z,82.98
2023-10-30T02:06:11.170Z,83.14
2023-10-30T02:07:11.135Z,83.30
2023-10-30T02:08:11.144Z,83.40
2023-10-30T02:09:11.152Z,83.37
2023-10-30T02:10:11.136Z,83.34
2023-10-30T02:11:11.140Z,83.42
2023-10-30T02:12:11.164Z,83.43
2023-10-30T02:13:11.175Z,83.42
2023-10-30T02:14:11.142Z,83.41
2023-10-30T02:15:11.165Z,83.53
2023-10-30T02:16:11.161Z,83.51
2023-10-30T02:17:11.141Z,83.58
2023-10-30T02:18:11.177Z,83.49
2023-10-30T02:19:18.137Z,83.52
2023-10-30T02:20:11.142Z,83.63
2023-10-30T02:21:11.167Z,83.62
2023-10-30T02:22:11.153Z,83.74
2023-10-30T02:23:11.144Z,83.76
2023-10-30T02:24:11.174Z,83.67
2023-10-30T02:25:11.142Z,83.72
2023-10-30T02:26:11.148Z,83.77
2023-10-30T02:28:11.155Z,83.67
2023-10-30T02:29:11.142Z,83.70
2023-10-30T02:30:11.178Z,83.87
2023-10-30T02:31:11.158Z,83.77
2023-10-30T02:32:11.146Z,83.90
2023-10-30T02:33:11.252Z,83.98
2023-10-30T02:34:11.241Z,83.89
2023-10-30T02:35:13.146Z,83.87
2023-10-30T02:36:11.162Z,83.67
2023-10-30T02:37:11.153Z,83.77
2023-10-30T02:38:11.151Z,83.86
2023-10-30T02:39:11.178Z,83.75
2023-10-30T02:40:11.157Z,83.70
2023-10-30T02:41:11.152Z,83.61
2023-10-30T02:42:11.090Z,83.51
2023-10-30T02:43:11.067Z,83.73
2023-10-30T02:44:11.068Z,83.86
2023-10-30T02:45:11.113Z,84.12
2023-10-30T02:46:11.076Z,84.22
2023-10-30T02:47:11.065Z,84.27
2023-10-30T02:48:11.067Z,84.26
2023-10-30T02:49:11.067Z,84.18
2023-10-30T02:50:11.064Z,84.08
2023-10-30T02:51:11.089Z,84.11
2023-10-30T02:52:11.071Z,84.25
2023-10-30T02:53:11.066Z,84.03
2023-10-30T02:54:11.084Z,84.10
2023-10-30T02:55:11.079Z,84.16
2023-10-30T02:56:11.070Z,84.15
2023-10-30T02:57:11.098Z,84.03
2023-10-30T02:58:11.078Z,83.97
2023-10-30T02:59:11.069Z,83.95
2023-10-30T03:00:11.109Z,83.90
2023-10-30T03:01:11.079Z,83.73
2023-10-30T03:02:11.073Z,83.83
2023-10-30T03:03:11.208Z,83.93
2023-10-30T03:04:11.227Z,83.91
2023-10-30T03:05:11.171Z,83.82
2023-10-30T03:06:11.091Z,83.80
2023-10-30T03:07:11.084Z,83.72
2023-10-30T03:08:11.075Z,83.64
2023-10-30T03:09:11.098Z,83.59
2023-10-30T03:10:11.080Z,83.73
2023-10-30T03:11:11.076Z,83.69
2023-10-30T03:12:11.181Z,83.64
2023-10-30T03:13:11.078Z,83.60
2023-10-30T03:14:11.080Z,83.46
2023-10-30T03:15:11.170Z,83.52
2023-10-30T03:16:11.222Z,83.69
2023-10-30T03:17:11.079Z,83.79
2023-10-30T03:18:11.092Z,83.73
2023-10-30T03:19:11.107Z,83.81
2023-10-30T03:20:12.088Z,83.90
2023-10-30T03:21:11.080Z,83.77
2023-10-30T03:22:11.088Z,83.99
2023-10-30T03:23:11.083Z,84.05
2023-10-30T03:24:11.121Z,84.18
2023-10-30T03:25:11.090Z,84.29
2023-10-30T03:26:11.082Z,84.18
2023-10-30T03:27:11.131Z,84.24
2023-10-30T03:28:11.096Z,84.12
2023-10-30T03:29:11.089Z,84.16
2023-10-30T03:30:11.111Z,84.14
2023-10-30T03:31:11.104Z,84.13
2023-10-30T03:32:11.088Z,84.15
2023-10-30T03:33:11.107Z,84.33
2023-10-30T03:34:11.128Z,84.32
2023-10-30T03:35:11.090Z,84.33
2023-10-30T03:36:11.113Z,84.21
2023-10-30T03:37:11.089Z,84.31
2023-10-30T03:38:11.089Z,84.40
2023-10-30T03:39:11.126Z,84.36
2023-10-30T03:40:11.127Z,84.43
2023-10-30T03:41:11.093Z,84.56
2023-10-30T03:42:11.123Z,84.49
2023-10-30T03:43:11.094Z,84.62
2023-10-30T03:44:11.096Z,84.64
2023-10-30T03:45:12.162Z,84.62
2023-10-30T03:46:11.122Z,84.61
2023-10-30T03:47:11.097Z,84.52
2023-10-30T03:48:11.168Z,84.40
2023-10-30T03:49:11.094Z,84.27
2023-10-30T03:50:11.100Z,84.29
2023-10-30T03:51:11.103Z,84.23
2023-10-30T03:52:11.098Z,84.09
2023-10-30T03:53:11.103Z,84.25
2023-10-30T03:54:11.094Z,84.36
2023-10-30T03:55:11.106Z,84.50
2023-10-30T03:56:11.099Z,84.74
2023-10-30T03:57:11.117Z,84.87
2023-10-30T03:58:11.106Z,84.92
2023-10-30T03:59:11.106Z,85.11
2023-10-30T04:00:12.159Z,85.10
2023-10-30T04:01:11.138Z,85.23
2023-10-30T04:02:11.109Z,85.25
2023-10-30T04:03:13.142Z,85.27
2023-10-30T04:04:11.210Z,85.15
2023-10-30T04:05:11.105Z,85.11
2023-10-30T04:06:11.118Z,85.29
2023-10-30T04:07:11.111Z,85.11
2023-10-30T04:08:11.126Z,85.09
2023-10-30T04:09:11.131Z,84.99
2023-10-30T04:10:11.111Z,84.99
2023-10-30T04:11:12.114Z,85.08
2023-10-30T04:12:11.192Z,85.20
2023-10-30T04:13:11.113Z,85.42
2023-10-30T04:14:11.110Z,85.46
2023-10-30T04:15:11.161Z,85.41
2023-10-30T04:16:12.213Z,85.30
2023-10-30T04:17:11.112Z,85.43
2023-10-30T04:18:11.144Z,85.56
2023-10-30T04:19:11.113Z,85.62
2023-10-30T04:20:11.113Z,85.61
2023-10-30T04:21:11.226Z,85.56
2023-10-30T04:22:11.148Z,85.56
2023-10-30T04:23:11.113Z,85.40
2023-10-30T04:24:11.152Z,85.28
2023-10-30T04:25:11.127Z,85.35
2023-10-30T04:26:11.116Z,85.43
2023-10-30T04:27:11.140Z,85.39
2023-10-30T04:28:11.124Z,85.45
2023-10-30T04:29:11.126Z,85.40
2023-10-30T04:30:11.147Z,85.27
2023-10-30T04:31:11.115Z,85.27
2023-10-30T04:32:11.118Z,85.50
2023-10-30T04:33:11.148Z,85.57
2023-10-30T04:34:11.119Z,85.65
2023-10-30T04:35:11.120Z,85.71
2023-10-30T04:36:11.139Z,85.64
2023-10-30T04:37:11.119Z,85.57
2023-10-30T04:38:11.122Z,85.52
2023-10-30T04:39:13.140Z,85.44
2023-10-30T04:40:11.128Z,85.39
2023-10-30T04:41:11.135Z,85.20
2023-10-30T04:42:11.160Z,85.21
2023-10-30T04:43:11.126Z,85.31
2023-10-30T04:44:11.144Z,85.19
2023-10-30T04:45:11.160Z,85.12
2023-10-30T04:46:11.150Z,85.09
2023-10-30T04:47:12.145Z,85.14
2023-10-30T04:48:11.212Z,85.13
2023-10-30T04:49:11.131Z,85.13
2023-10-30T04:50:11.144Z,84.98
2023-10-30T04:51:11.129Z,84.92
2023-10-30T04:52:11.124Z,84.92
2023-10-30T04:53:11.131Z,84.91
2023-10-30T04:54:14.290Z,84.98
2023-10-30T04:55:11.133Z,85.29
2023-10-30T04:56:11.131Z,85.16
2023-10-30T04:57:11.257Z,85.14
2023-10-30T04:58:11.129Z,85.09
2023-10-30T04:59:11.132Z,85.07
2023-10-30T05:00:12.173Z,85.22
2023-10-30T05:01:11.133Z,85.25
2023-10-30T05:02:11.132Z,85.21
2023-10-30T05:03:11.140Z,85.13
2023-10-30T05:04:11.171Z,85.20
2023-10-30T05:05:11.136Z,85.33
2023-10-30T05:06:11.140Z,85.33
2023-10-30T05:07:11.172Z,85.31
2023-10-30T05:08:11.134Z,85.29
2023-10-30T05:09:11.147Z,85.29
2023-10-30T05:10:11.134Z,85.16
2023-10-30T05:11:11.138Z,85.04
2023-10-30T05:12:11.146Z,85.07
2023-10-30T05:13:11.146Z,84.88
2023-10-30T05:14:11.135Z,84.98
2023-10-30T05:15:11.142Z,84.86
2023-10-30T05:16:11.176Z,84.73
2023-10-30T05:17:11.141Z,84.78
2023-10-30T05:18:11.141Z,84.79
2023-10-30T05:19:11.141Z,84.73
2023-10-30T05:20:11.141Z,84.42
2023-10-30T05:21:11.908Z,84.59
2023-10-30T05:22:11.144Z,84.41
2023-10-30T05:23:11.150Z,84.33
2023-10-30T05:24:11.152Z,84.31
2023-10-30T05:25:12.144Z,84.24
2023-10-30T05:26:11.173Z,84.08
2023-10-30T05:27:11.157Z,84.37
2023-10-30T05:28:11.232Z,84.52
2023-10-30T05:29:11.148Z,84.59
2023-10-30T05:30:11.220Z,84.64
2023-10-30T05:31:11.206Z,84.48
2023-10-30T05:32:11.150Z,84.44
2023-10-30T05:33:11.193Z,84.30
2023-10-30T05:34:11.152Z,84.58
2023-10-30T05:35:11.146Z,84.71
2023-10-30T05:36:11.155Z,84.77
2023-10-30T05:37:11.149Z,84.77
2023-10-30T05:38:11.150Z,84.88
2023-10-30T05:39:11.154Z,84.69
2023-10-30T05:40:12.749Z,84.48
2023-10-30T05:41:11.150Z,84.51
2023-10-30T05:42:11.061Z,84.55
2023-10-30T05:43:11.066Z,84.60
2023-10-30T05:44:11.066Z,84.48
2023-10-30T05:45:11.064Z,84.36
2023-10-30T05:46:11.117Z,84.38
2023-10-30T05:47:11.065Z,84.36
2023-10-30T05:48:11.064Z,84.20
2023-10-30T05:49:11.072Z,84.31
2023-10-30T05:50:11.067Z,84.17
2023-10-30T05:51:11.067Z,84.22
2023-10-30T05:52:11.069Z,84.39
2023-10-30T05:53:11.066Z,84.48
2023-10-30T05:54:11.065Z,84.57
2023-10-30T05:55:11.075Z,84.59
2023-10-30T05:56:11.066Z,84.56
2023-10-30T05:57:12.280Z,84.57
2023-10-30T05:58:11.081Z,84.59
2023-10-30T05:59:11.094Z,84.65
2023-10-30T06:00:11.074Z,84.88
2023-10-30T06:01:11.074Z,84.84
2023-10-30T06:02:11.074Z,84.69
2023-10-30T06:03:11.068Z,84.51
2023-10-30T06:04:11.133Z,84.61
2023-10-30T06:05:11.076Z,84.47
2023-10-30T06:06:11.073Z,84.33
2023-10-30T06:07:11.082Z,84.41
2023-10-30T06:08:11.082Z,84.42
2023-10-30T06:09:11.077Z,84.66
2023-10-30T06:10:11.085Z,84.82
2023-10-30T06:11:11.078Z,84.71
2023-10-30T06:12:11.073Z,84.67
2023-10-30T06:13:12.088Z,84.53
2023-10-30T06:14:11.080Z,84.52
2023-10-30T06:15:11.106Z,84.52
2023-10-30T06:16:15.158Z,84.53
2023-10-30T06:17:11.080Z,84.31
2023-10-30T06:18:11.086Z,84.32
2023-10-30T06:19:11.083Z,84.38
2023-10-30T06:20:11.090Z,84.36
2023-10-30T06:21:16.105Z,84.19
2023-10-30T06:22:11.082Z,84.30
2023-10-30T06:23:11.085Z,84.24
2023-10-30T06:24:11.083Z,84.16
2023-10-30T06:25:11.124Z,84.09
2023-10-30T06:26:13.093Z,84.05
2023-10-30T06:27:11.087Z,84.00
2023-10-30T06:28:11.085Z,83.94
2023-10-30T06:29:11.094Z,83.70
2023-10-30T06:30:12.087Z,83.77
2023-10-30T06:31:15.095Z,83.95
2023-10-30T06:32:11.151Z,84.02
2023-10-30T06:33:11.164Z,84.10
2023-10-30T06:34:11.089Z,84.04
2023-10-30T06:35:11.110Z,84.10
2023-10-30T06:36:11.093Z,84.21
2023-10-30T06:37:11.274Z,84.28
2023-10-30T06:38:11.091Z,84.36
2023-10-30T06:39:11.086Z,84.27
2023-10-30T06:40:11.100Z,84.30
2023-10-30T06:41:11.103Z,84.55
2023-10-30T06:42:11.091Z,84.61
2023-10-30T06:43:11.094Z,84.69
2023-10-30T06:44:11.099Z,84.75
2023-10-30T06:45:11.092Z,84.87
2023-10-30T06:46:11.172Z,84.89
2023-10-30T06:47:11.102Z,85.04
2023-10-30T06:48:11.095Z,84.96
2023-10-30T06:49:11.097Z,84.86
2023-10-30T06:50:11.104Z,84.83
2023-10-30T06:51:11.094Z,84.79
2023-10-30T06:52:11.103Z,84.69
2023-10-30T06:53:11.106Z,84.79
2023-10-30T06:54:13.101Z,84.77
2023-10-30T06:55:11.110Z,84.73
2023-10-30T06:56:11.100Z,84.76
2023-10-30T06:57:11.100Z,85.04
2023-10-30T06:58:11.102Z,85.08
2023-10-30T06:59:11.104Z,84.95
2023-10-30T07:00:11.100Z,84.88
2023-10-30T07:01:11.177Z,84.94
2023-10-30T07:02:11.102Z,85.16
2023-10-30T07:03:11.200Z,85.35
2023-10-30T07:04:11.185Z,85.18
2023-10-30T07:05:11.110Z,85.23
2023-10-30T07:06:11.109Z,85.18
2023-10-30T07:07:11.104Z,85.26
2023-10-30T07:08:11.116Z,85.42
2023-10-30T07:09:11.105Z,85.68
2023-10-30T07:10:11.115Z,85.64
2023-10-30T07:11:11.107Z,85.62
2023-10-30T07:12:11.116Z,85.60
2023-10-30T07:13:11.107Z,85.65
2023-10-30T07:14:11.105Z,85.79
2023-10-30T07:15:11.116Z,85.78
2023-10-30T07:16:11.133Z,85.63
2023-10-30T07:17:11.157Z,85.59
2023-10-30T07:18:11.176Z,85.66
2023-10-30T07:19:11.108Z,85.80
2023-10-30T07:20:11.108Z,85.83
2023-10-30T07:21:11.112Z,85.73
2023-10-30T07:22:11.108Z,85.74
2023-10-30T07:23:11.120Z,85.65
2023-10-30T07:24:11.109Z,85.94
2023-10-30T07:25:11.126Z,85.79
2023-10-30T07:26:11.117Z,85.75
2023-10-30T07:27:11.113Z,85.64
2023-10-30T07:28:11.142Z,85.61
2023-10-30T07:29:11.119Z,85.63
2023-10-30T07:30:11.120Z,85.66
2023-10-30T07:31:11.217Z,85.63
2023-10-30T07:32:11.114Z,85.50
2023-10-30T07:33:11.157Z,85.31
2023-10-30T07:34:11.113Z,85.15
2023-10-30T07:35:11.120Z,85.09
2023-10-30T07:36:11.117Z,85.05
2023-10-30T07:37:11.154Z,84.93
2023-10-30T07:38:11.119Z,84.81
2023-10-30T07:39:12.316Z,84.86
2023-10-30T07:40:11.136Z,84.88
2023-10-30T07:41:11.129Z,84.76
2023-10-30T07:42:11.149Z,84.65
2023-10-30T07:43:11.119Z,84.57
2023-10-30T07:44:11.129Z,84.40
2023-10-30T07:45:11.205Z,84.38
2023-10-30T07:46:12.236Z,84.36
2023-10-30T07:47:12.657Z,84.26
2023-10-30T07:48:11.168Z,84.33
2023-10-30T07:49:11.198Z,84.22
2023-10-30T07:50:11.130Z,84.00
2023-10-30T07:51:11.135Z,83.98
2023-10-30T07:52:11.125Z,84.05
2023-10-30T07:53:11.128Z,84.11
2023-10-30T07:54:11.128Z,83.95
2023-10-30T07:55:11.127Z,84.08
2023-10-30T07:56:11.127Z,83.96
2023-10-30T07:57:11.140Z,84.10
2023-10-30T07:58:12.128Z,84.06
2023-10-30T07:59:11.131Z,83.80
2023-10-30T08:00:11.131Z,83.75
2023-10-30T08:01:11.175Z,83.70
2023-10-30T08:02:11.139Z,83.89
2023-10-30T08:03:11.171Z,83.72
2023-10-30T08:04:11.232Z,83.92
2023-10-30T08:05:11.132Z,84.00
2023-10-30T08:06:11.131Z,84.10
2023-10-30T08:07:11.153Z,83.97
2023-10-30T08:08:12.219Z,84.15
2023-10-30T08:09:11.137Z,84.05
2023-10-30T08:10:11.143Z,84.11
2023-10-30T08:11:11.144Z,84.23
2023-10-30T08:12:11.133Z,84.18
2023-10-30T08:13:11.143Z,84.26
2023-10-30T08:14:11.138Z,84.44
2023-10-30T08:15:11.133Z,84.54
2023-10-30T08:16:11.179Z,84.52
2023-10-30T08:17:11.139Z,84.63
2023-10-30T08:18:11.138Z,84.73
2023-10-30T08:19:11.140Z,84.78
2023-10-30T08:20:11.164Z,84.63
2023-10-30T08:21:11.143Z,84.52
2023-10-30T08:22:11.143Z,84.61
2023-10-30T08:23:11.149Z,84.65
2023-10-30T08:24:11.142Z,84.72
2023-10-30T08:25:11.144Z,84.73
2023-10-30T08:26:11.145Z,84.64
2023-10-30T08:27:11.150Z,84.70
2023-10-30T08:28:11.144Z,84.75
2023-10-30T08:29:11.148Z,84.91
2023-10-30T08:30:11.145Z,85.02
2023-10-30T08:31:11.286Z,84.98
2023-10-30T08:32:11.159Z,84.75
2023-10-30T08:33:11.215Z,84.63
2023-10-30T08:34:11.153Z,84.85
2023-10-30T08:35:11.152Z,84.73
2023-10-30T08:36:11.146Z,84.74
2023-10-30T08:37:11.155Z,84.46
2023-10-30T08:38:11.158Z,84.41
2023-10-30T08:39:11.150Z,84.32
2023-10-30T08:40:11.158Z,84.40
2023-10-30T08:41:15.154Z,84.29
2023-10-30T08:42:11.071Z,84.25
2023-10-30T08:43:11.065Z,83.91
2023-10-30T08:44:11.070Z,83.75
2023-10-30T08:45:11.067Z,83.56
2023-10-30T08:46:11.121Z,83.36
2023-10-30T08:47:11.070Z,83.25
2023-10-30T08:48:18.552Z,83.25
2023-10-30T08:49:13.137Z,83.24
2023-10-30T08:50:11.074Z,82.75
2023-10-30T08:51:11.070Z,82.70
2023-10-30T08:52:11.096Z,82.68
2023-10-30T08:53:11.154Z,82.43
2023-10-30T08:54:11.074Z,82.10
2023-10-30T08:55:11.071Z,81.77
2023-10-30T08:56:11.083Z,81.83
2023-10-30T08:57:17.137Z,81.70
2023-10-30T08:58:13.079Z,81.53
2023-10-30T08:59:11.078Z,81.45
2023-10-30T09:00:13.086Z,81.31
2023-10-30T09:01:11.080Z,81.19
2023-10-30T09:02:11.071Z,81.19
2023-10-30T09:03:11.143Z,80.99
2023-10-30T09:04:11.256Z,81.02
2023-10-30T09:05:11.269Z,80.97
2023-10-30T09:06:11.307Z,80.97
2023-10-30T09:07:11.101Z,80.85
2023-10-30T09:08:11.073Z,80.73
2023-10-30T09:09:11.095Z,80.48
2023-10-30T09:10:11.079Z,80.20
2023-10-30T09:11:11.074Z,80.06
2023-10-30T09:12:11.082Z,79.69
2023-10-30T09:13:11.079Z,79.56
2023-10-30T09:14:11.086Z,79.18
2023-10-30T09:15:11.084Z,79.22
2023-10-30T09:16:11.164Z,79.11
2023-10-30T09:17:13.077Z,78.80
2023-10-30T09:18:11.086Z,78.57
2023-10-30T09:19:11.090Z,78.75
2023-10-30T09:20:11.089Z,78.52
2023-10-30T09:21:11.094Z,78.56
2023-10-30T09:22:11.084Z,78.56
2023-10-30T09:23:11.083Z,78.20
2023-10-30T09:24:11.082Z,78.10
2023-10-30T09:25:11.174Z,77.92
2023-10-30T09:26:11.094Z,77.62
2023-10-30T09:27:11.106Z,77.53
2023-10-30T09:28:11.159Z,77.39
2023-10-30T09:29:11.081Z,77.30
2023-10-30T09:30:11.086Z,77.30
2023-10-30T09:31:11.117Z,77.22
2023-10-30T09:32:11.085Z,76.92
2023-10-30T09:33:11.131Z,76.60
2023-10-30T09:34:11.096Z,76.65
2023-10-30T09:35:11.088Z,76.59
2023-10-30T09:36:11.090Z,76.61
2023-10-30T09:37:11.096Z,76.60
2023-10-30T09:38:11.087Z,76.67
2023-10-30T09:39:11.106Z,76.71
2023-10-30T09:40:11.101Z,76.74
2023-10-30T09:41:12.103Z,76.54
2023-10-30T09:42:11.092Z,76.41
2023-10-30T09:43:15.788Z,76.51
2023-10-30T09:44:11.113Z,76.21
2023-10-30T09:45:11.089Z,76.27
2023-10-30T09:46:11.187Z,75.93
2023-10-30T09:47:11.097Z,75.96
2023-10-30T09:48:11.106Z,75.98
2023-10-30T09:49:11.104Z,75.66
2023-10-30T09:50:11.107Z,75.37
2023-10-30T09:51:11.098Z,74.85
2023-10-30T09:52:11.098Z,74.63
2023-10-30T09:53:11.107Z,74.40
2023-10-30T09:54:11.096Z,74.35
2023-10-30T09:55:13.162Z,74.36
2023-10-30T09:56:11.101Z,74.25
2023-10-30T09:57:11.098Z,73.92
2023-10-30T09:58:11.123Z,73.95
2023-10-30T09:59:11.102Z,73.61
2023-10-30T10:00:11.131Z,73.73
2023-10-30T10:01:11.283Z,73.66
2023-10-30T10:02:11.205Z,73.60
2023-10-30T10:03:12.158Z,73.46
2023-10-30T10:04:11.284Z,73.57
2023-10-30T10:05:11.129Z,73.50
2023-10-30T10:06:11.106Z,73.60
2023-10-30T10:07:11.131Z,73.47
2023-10-30T10:08:11.192Z,73.72
2023-10-30T10:09:11.144Z,73.74
2023-10-30T10:10:11.167Z,73.67
2023-10-30T10:11:12.180Z,73.82
2023-10-30T10:12:19.126Z,74.06
2023-10-30T10:13:11.214Z,74.17
2023-10-30T10:14:11.340Z,74.03
2023-10-30T10:15:13.108Z,73.95
2023-10-30T10:16:11.244Z,73.65
2023-10-30T10:17:11.123Z,73.55
2023-10-30T10:18:19.115Z,73.41
2023-10-30T10:19:19.120Z,73.73
2023-10-30T10:20:11.113Z,73.68
2023-10-30T10:21:11.114Z,73.87
2023-10-30T10:22:11.110Z,74.03
2023-10-30T10:23:19.118Z,74.10
2023-10-30T10:24:11.192Z,74.25
2023-10-30T10:25:11.114Z,74.38
2023-10-30T10:26:11.122Z,74.57
2023-10-30T10:27:11.125Z,74.49
2023-10-30T10:28:12.382Z,74.60
2023-10-30T10:29:11.121Z,74.64
2023-10-30T10:30:11.134Z,74.50
2023-10-30T10:31:11.122Z,74.73
2023-10-30T10:32:11.128Z,74.56
2023-10-30T10:33:11.216Z,74.65
2023-10-30T10:34:11.168Z,74.52
2023-10-30T10:35:11.124Z,74.58
2023-10-30T10:36:11.172Z,74.57
2023-10-30T10:37:16.123Z,74.50
2023-10-30T10:38:11.121Z,73.86
2023-10-30T10:39:11.128Z,73.78
2023-10-30T10:40:15.126Z,73.76
2023-10-30T10:41:11.129Z,73.64
2023-10-30T10:42:11.126Z,73.80
2023-10-30T10:43:11.129Z,73.55
2023-10-30T10:44:11.131Z,73.30
2023-10-30T10:45:11.129Z,73.18
2023-10-30T10:46:11.183Z,72.73
2023-10-30T10:47:11.132Z,72.79
2023-10-30T10:48:11.177Z,72.52
2023-10-30T10:49:11.134Z,72.25
2023-10-30T10:50:11.150Z,72.17
2023-10-30T10:51:11.141Z,72.30
2023-10-30T10:52:14.132Z,72.25
2023-10-30T10:53:12.139Z,71.92
2023-10-30T10:54:20.132Z,71.94
2023-10-30T10:55:11.146Z,71.64
2023-10-30T10:56:11.135Z,71.88
2023-10-30T10:57:15.137Z,71.57
2023-10-30T10:58:19.143Z,71.53
2023-10-30T10:59:14.150Z,71.31
2023-10-30T11:00:13.157Z,71.10
2023-10-30T11:01:15.161Z,71.12
2023-10-30T11:02:12.146Z,71.00
2023-10-30T11:03:11.138Z,70.96
2023-10-30T11:04:11.200Z,70.96
2023-10-30T11:05:11.146Z,70.74
2023-10-30T11:06:11.140Z,70.68
2023-10-30T11:07:13.150Z,70.23
2023-10-30T11:08:21.143Z,69.74
2023-10-30T11:09:17.145Z,69.54
2023-10-30T11:10:21.244Z,69.44
2023-10-30T11:11:19.143Z,68.88
2023-10-30T11:12:21.155Z,68.80
2023-10-30T11:13:16.143Z,68.58
2023-10-30T11:14:19.145Z,68.81
2023-10-30T11:15:17.149Z,69.15
2023-10-30T11:16:19.256Z,68.91
2023-10-30T11:17:11.147Z,68.96
2023-10-30T11:18:19.153Z,69.39
2023-10-30T11:19:11.144Z,69.53
2023-10-30T11:20:11.225Z,69.43
2023-10-30T11:21:11.161Z,69.38
2023-10-30T11:22:11.165Z,69.21
2023-10-30T11:23:11.165Z,69.01
2023-10-30T11:24:11.154Z,68.89
2023-10-30T11:25:19.199Z,68.62
2023-10-30T11:26:11.163Z,68.72
2023-10-30T11:27:19.153Z,68.47
2023-10-30T11:28:11.151Z,68.15
2023-10-30T11:29:17.158Z,67.79
2023-10-30T11:30:11.155Z,67.91
2023-10-30T11:31:11.156Z,67.79
2023-10-30T11:32:12.160Z,67.87
2023-10-30T11:33:17.157Z,68.04
2023-10-30T11:34:15.170Z,68.20
2023-10-30T11:35:11.323Z,68.05
2023-10-30T11:36:21.161Z,68.38
2023-10-30T11:37:11.171Z,68.32
2023-10-30T11:38:11.166Z,68.18
2023-10-30T11:39:13.159Z,68.59
2023-10-30T11:40:11.160Z,67.91
2023-10-30T11:41:11.165Z,67.76
2023-10-30T11:42:19.063Z,67.55
2023-10-30T11:43:11.120Z,67.41
2023-10-30T11:44:12.102Z,67.00
2023-10-30T11:45:19.612Z,67.00
2023-10-30T11:46:13.160Z,66.89
2023-10-30T11:47:11.069Z,66.71
2023-10-30T11:48:11.165Z,66.81
2023-10-30T11:49:15.074Z,66.99
2023-10-30T11:50:11.063Z,66.82
2023-10-30T11:51:11.070Z,66.88
2023-10-30T11:52:13.078Z,66.85
2023-10-30T11:53:11.070Z,66.70
2023-10-30T11:54:11.071Z,66.45
2023-10-30T11:55:11.069Z,66.59
2023-10-30T11:56:11.066Z,66.55
2023-10-30T11:57:11.081Z,66.79
2023-10-30T11:58:13.084Z,66.76
2023-10-30T11:59:11.071Z,66.54
2023-10-30T12:00:11.076Z,66.55
2023-10-30T12:01:11.072Z,66.07
2023-10-30T12:02:11.071Z,66.36
2023-10-30T12:03:11.144Z,66.41
2023-10-30T12:04:11.151Z,66.73
2023-10-30T12:05:11.071Z,66.55
2023-10-30T12:06:11.074Z,66.55
2023-10-30T12:07:11.084Z,66.54
2023-10-30T12:08:11.170Z,66.01
2023-10-30T12:09:11.075Z,66.05
2023-10-30T12:10:11.104Z,66.10
2023-10-30T12:11:11.073Z,66.27
2023-10-30T12:12:11.076Z,66.03
2023-10-30T12:13:13.078Z,66.18
2023-10-30T12:14:11.076Z,65.43
2023-10-30T12:15:11.078Z,65.56
2023-10-30T12:16:11.161Z,65.14
2023-10-30T12:17:12.079Z,65.03
2023-10-30T12:18:11.127Z,64.83
2023-10-30T12:19:11.088Z,64.84
2023-10-30T12:20:11.084Z,64.92
2023-10-30T12:21:11.082Z,65.04
2023-10-30T12:22:11.091Z,64.99
2023-10-30T12:23:11.083Z,64.85
2023-10-30T12:24:11.087Z,64.98
2023-10-30T12:25:14.088Z,64.70
2023-10-30T12:26:11.083Z,65.09
2023-10-30T12:27:15.087Z,65.31
2023-10-30T12:28:11.101Z,65.35
2023-10-30T12:29:11.091Z,65.55
2023-10-30T12:30:17.083Z,65.48
2023-10-30T12:31:20.203Z,65.63
2023-10-30T12:32:11.097Z,65.79
2023-10-30T12:33:11.100Z,65.75
2023-10-30T12:34:13.101Z,65.88
2023-10-30T12:35:13.115Z,66.03
2023-10-30T12:36:11.093Z,66.21
2023-10-30T12:37:19.098Z,66.39
2023-10-30T12:38:15.095Z,66.26
2023-10-30T12:39:22.109Z,66.69
2023-10-30T12:40:12.092Z,66.85
2023-10-30T12:41:12.677Z,66.63
2023-10-30T12:42:12.112Z,66.61
2023-10-30T12:43:11.094Z,66.57
2023-10-30T12:44:11.100Z,66.49
2023-10-30T12:45:15.207Z,66.50
2023-10-30T12:46:11.159Z,66.10
2023-10-30T12:47:12.606Z,66.33
2023-10-30T12:48:11.214Z,66.11
2023-10-30T12:49:11.103Z,66.20
2023-10-30T12:50:11.111Z,66.40
2023-10-30T12:51:11.170Z,66.40
2023-10-30T12:52:11.131Z,66.54
2023-10-30T12:53:12.465Z,66.46